Aviation Digital Data Service (ADDS)

Output produced by METARs form (0819 UTC 19 April 2019)
found at http://www.aviationweather.gov/metar/data/
 
METAR text: FTTJ 190700Z 01011KT 6000 NSC 33/M03 Q1008 NOSIG
Conditions at: FTTJ (NDJAMENA (CIV/MI, TD) observed 0700 UTC 19 April 2019
Temperature: 33.0°C (91°F)
Dewpoint: -3.0°C (27°F) [RH = 10%]
Pressure (altimeter): 29.76 inches Hg (1008.0 mb)
Winds: from the N (10 degrees) at 13 MPH (11 knots; 5.7 m/s)
Visibility: 4 miles ( 6 km)
Ceiling: at least 12,000 feet AGL
Clouds: sky clear below 12,000 feet AGL
Weather: no significant weather observed at this time

METAR text: FTTJ 190600Z 36007KT 7000 NSC 30/M04 Q1007 NOSIG
Conditions at: FTTJ (NDJAMENA (CIV/MI, TD) observed 0600 UTC 19 April 2019
Temperature: 30.0°C (86°F)
Dewpoint: -4.0°C (25°F) [RH = 11%]
Pressure (altimeter): 29.73 inches Hg (1007.0 mb)
Winds: from the N (360 degrees) at 8 MPH (7 knots; 3.6 m/s)
Visibility: 4 miles ( 7 km)
Ceiling: at least 12,000 feet AGL
Clouds: sky clear below 12,000 feet AGL
Weather: no significant weather observed at this time

METAR text: FTTJ 190500Z 35007KT 7000 NSC 29/M03 Q1007 NOSIG
Conditions at: FTTJ (NDJAMENA (CIV/MI, TD) observed 0500 UTC 19 April 2019
Temperature: 29.0°C (84°F)
Dewpoint: -3.0°C (27°F) [RH = 12%]
Pressure (altimeter): 29.73 inches Hg (1007.0 mb)
Winds: from the N (350 degrees) at 8 MPH (7 knots; 3.6 m/s)
Visibility: 4 miles ( 7 km)
Ceiling: at least 12,000 feet AGL
Clouds: sky clear below 12,000 feet AGL
Weather: no significant weather observed at this time

METAR text: FTTJ 190400Z 36008KT 7000 NSC 29/M02 Q1006 NOSIG
Conditions at: FTTJ (NDJAMENA (CIV/MI, TD) observed 0400 UTC 19 April 2019
Temperature: 29.0°C (84°F)
Dewpoint: -2.0°C (28°F) [RH = 13%]
Pressure (altimeter): 29.70 inches Hg (1006.0 mb)
Winds: from the N (360 degrees) at 9 MPH (8 knots; 4.1 m/s)
Visibility: 4 miles ( 7 km)
Ceiling: at least 12,000 feet AGL
Clouds: sky clear below 12,000 feet AGL
Weather: no significant weather observed at this time

METAR text: FTTJ 190300Z 01007KT 4500 DU NSC 29/M01 Q1006 NOSIG
Conditions at: FTTJ (NDJAMENA (CIV/MI, TD) observed 0300 UTC 19 April 2019
Temperature: 29.0°C (84°F)
Dewpoint: -1.0°C (30°F) [RH = 14%]
Pressure (altimeter): 29.70 inches Hg (1006.0 mb)
Winds: from the N (10 degrees) at 8 MPH (7 knots; 3.6 m/s)
Visibility: 2.80 miles (4.51 km)
Ceiling: at least 12,000 feet AGL
Clouds: sky clear below 12,000 feet AGL
Weather: DU  (widespread dust)

METAR text: FTTJ 190200Z 01006KT 4000 DU NSC 30/00 Q1006 NOSIG
Conditions at: FTTJ (NDJAMENA (CIV/MI, TD) observed 0200 UTC 19 April 2019
Temperature: 30.0°C (86°F)
Dewpoint: 0.0°C (32°F) [RH = 14%]
Pressure (altimeter): 29.70 inches Hg (1006.0 mb)
Winds: from the N (10 degrees) at 7 MPH (6 knots; 3.1 m/s)
Visibility: 2.49 miles (4.01 km)
Ceiling: at least 12,000 feet AGL
Clouds: sky clear below 12,000 feet AGL
Weather: DU  (widespread dust)

METAR text: FTTJ 190100Z 35006KT 4000 DU NSC 30/03 Q1006 NOSIG
Conditions at: FTTJ (NDJAMENA (CIV/MI, TD) observed 0100 UTC 19 April 2019
Temperature: 30.0°C (86°F)
Dewpoint: 3.0°C (37°F) [RH = 18%]
Pressure (altimeter): 29.70 inches Hg (1006.0 mb)
Winds: from the N (350 degrees) at 7 MPH (6 knots; 3.1 m/s)
Visibility: 2.49 miles (4.01 km)
Ceiling: at least 12,000 feet AGL
Clouds: sky clear below 12,000 feet AGL
Weather: DU  (widespread dust)

METAR text: FTTJ 190000Z 34007KT 4000 DU NSC 32/02 Q1006 NOSIG
Conditions at: FTTJ (NDJAMENA (CIV/MI, TD) observed 0000 UTC 19 April 2019
Temperature: 32.0°C (90°F)
Dewpoint: 2.0°C (36°F) [RH = 15%]
Pressure (altimeter): 29.70 inches Hg (1006.0 mb)
Winds: from the NNW (340 degrees) at 8 MPH (7 knots; 3.6 m/s)
Visibility: 2.49 miles (4.01 km)
Ceiling: at least 12,000 feet AGL
Clouds: sky clear below 12,000 feet AGL
Weather: DU  (widespread dust)

METAR text: FTTJ 182300Z 34008KT 6000 NSC 33/03 Q1007 NOSIG
Conditions at: FTTJ (NDJAMENA (CIV/MI, TD) observed 2300 UTC 18 April 2019
Temperature: 33.0°C (91°F)
Dewpoint: 3.0°C (37°F) [RH = 15%]
Pressure (altimeter): 29.73 inches Hg (1007.0 mb)
Winds: from the NNW (340 degrees) at 9 MPH (8 knots; 4.1 m/s)
Visibility: 4 miles ( 6 km)
Ceiling: at least 12,000 feet AGL
Clouds: sky clear below 12,000 feet AGL
Weather: no significant weather observed at this time

METAR text: FTTJ 182200Z 32006KT 8000 NSC 33/03 Q1007 NOSIG
Conditions at: FTTJ (NDJAMENA (CIV/MI, TD) observed 2200 UTC 18 April 2019
Temperature: 33.0°C (91°F)
Dewpoint: 3.0°C (37°F) [RH = 15%]
Pressure (altimeter): 29.73 inches Hg (1007.0 mb)
Winds: from the NW (320 degrees) at 7 MPH (6 knots; 3.1 m/s)
Visibility: 5 miles ( 8 km)
Ceiling: at least 12,000 feet AGL
Clouds: sky clear below 12,000 feet AGL
Weather: no significant weather observed at this time

METAR text: FTTJ 182100Z 31006KT 8000 NSC 33/02 Q1007 NOSIG
Conditions at: FTTJ (NDJAMENA (CIV/MI, TD) observed 2100 UTC 18 April 2019
Temperature: 33.0°C (91°F)
Dewpoint: 2.0°C (36°F) [RH = 14%]
Pressure (altimeter): 29.73 inches Hg (1007.0 mb)
Winds: from the NW (310 degrees) at 7 MPH (6 knots; 3.1 m/s)
Visibility: 5 miles ( 8 km)
Ceiling: at least 12,000 feet AGL
Clouds: sky clear below 12,000 feet AGL
Weather: no significant weather observed at this time

METAR text: FTTJ 182000Z 31006KT 8000 NSC 34/02 Q1006 NOSIG
Conditions at: FTTJ (NDJAMENA (CIV/MI, TD) observed 2000 UTC 18 April 2019
Temperature: 34.0°C (93°F)
Dewpoint: 2.0°C (36°F) [RH = 13%]
Pressure (altimeter): 29.70 inches Hg (1006.0 mb)
Winds: from the NW (310 degrees) at 7 MPH (6 knots; 3.1 m/s)
Visibility: 5 miles ( 8 km)
Ceiling: at least 12,000 feet AGL
Clouds: sky clear below 12,000 feet AGL
Weather: no significant weather observed at this time

METAR text: FTTJ 181900Z 31006KT 6000 NSC 36/M01 Q1006 NOSIG
Conditions at: FTTJ (NDJAMENA (CIV/MI, TD) observed 1900 UTC 18 April 2019
Temperature: 36.0°C (97°F)
Dewpoint: -1.0°C (30°F) [RH = 10%]
Pressure (altimeter): 29.70 inches Hg (1006.0 mb)
Winds: from the NW (310 degrees) at 7 MPH (6 knots; 3.1 m/s)
Visibility: 4 miles ( 6 km)
Ceiling: at least 12,000 feet AGL
Clouds: sky clear below 12,000 feet AGL
Weather: no significant weather observed at this time

METAR text: FTTJ 181800Z 03003KT 2000 DU NSC 35/01 Q1006 NOSIG
Conditions at: FTTJ (NDJAMENA (CIV/MI, TD) observed 1800 UTC 18 April 2019
Temperature: 35.0°C (95°F)
Dewpoint: 1.0°C (34°F) [RH = 12%]
Pressure (altimeter): 29.70 inches Hg (1006.0 mb)
Winds: from the NNE (30 degrees) at 3 MPH (3 knots; 1.5 m/s)
Visibility: 1.24 miles (2.00 km)
Ceiling: at least 12,000 feet AGL
Clouds: sky clear below 12,000 feet AGL
Weather: DU  (widespread dust)

METAR text: FTTJ 181700Z 04004KT 4500 DU NSC 38/01 Q1005 NOSIG
Conditions at: FTTJ (NDJAMENA (CIV/MI, TD) observed 1700 UTC 18 April 2019
Temperature: 38.0°C (100°F)
Dewpoint: 1.0°C (34°F) [RH = 10%]
Pressure (altimeter): 29.68 inches Hg (1005.0 mb)
Winds: from the NE (40 degrees) at 5 MPH (4 knots; 2.1 m/s)
Visibility: 2.80 miles (4.51 km)
Ceiling: at least 12,000 feet AGL
Clouds: sky clear below 12,000 feet AGL
Weather: DU  (widespread dust)

METAR text: FTTJ 181600Z 33005KT 330V080 4500 DU NSC 40/01 Q1005 NOSIG
Conditions at: FTTJ (NDJAMENA (CIV/MI, TD) observed 1600 UTC 18 April 2019
Temperature: 40.0°C (104°F)
Dewpoint: 1.0°C (34°F) [RH =  9%]
Pressure (altimeter): 29.68 inches Hg (1005.0 mb)
Winds: from the NNW (330 degrees) at 6 MPH (5 knots; 2.6 m/s)
Visibility: 2.80 miles (4.51 km)
Ceiling: at least 12,000 feet AGL
Clouds: sky clear below 12,000 feet AGL
Weather: DU  (widespread dust)

METAR text: FTTJ 181500Z VRB08KT 4500 DU NSC 41/01 Q1005 NOSIG
Conditions at: FTTJ (NDJAMENA (CIV/MI, TD) observed 1500 UTC 18 April 2019
Temperature: 41.0°C (106°F)
Dewpoint: 1.0°C (34°F) [RH =  8%]
Pressure (altimeter): 29.68 inches Hg (1005.0 mb)
Winds: variable direction winds at 9 MPH (8 knots; 4.1 m/s)
Visibility: 2.80 miles (4.51 km)
Ceiling: at least 12,000 feet AGL
Clouds: sky clear below 12,000 feet AGL
Weather: DU  (widespread dust)

METAR text: FTTJ 181400Z 29006KT 290V090 4500 DU NSC 42/01 Q1005 NOSIG
Conditions at: FTTJ (NDJAMENA (CIV/MI, TD) observed 1400 UTC 18 April 2019
Temperature: 42.0°C (108°F)
Dewpoint: 1.0°C (34°F) [RH =  8%]
Pressure (altimeter): 29.68 inches Hg (1005.0 mb)
Winds: from the WNW (290 degrees) at 7 MPH (6 knots; 3.1 m/s)
Visibility: 2.80 miles (4.51 km)
Ceiling: at least 12,000 feet AGL
Clouds: sky clear below 12,000 feet AGL
Weather: DU  (widespread dust)

METAR text: FTTJ 181300Z 35010KT 350V090 4500 DU NSC 41/00 Q1006 NOSIG
Conditions at: FTTJ (NDJAMENA (CIV/MI, TD) observed 1300 UTC 18 April 2019
Temperature: 41.0°C (106°F)
Dewpoint: 0.0°C (32°F) [RH =  8%]
Pressure (altimeter): 29.70 inches Hg (1006.0 mb)
Winds: from the N (350 degrees) at 12 MPH (10 knots; 5.1 m/s)
Visibility: 2.80 miles (4.51 km)
Ceiling: at least 12,000 feet AGL
Clouds: sky clear below 12,000 feet AGL
Weather: DU  (widespread dust)

METAR text: FTTJ 181200Z 35010KT 350V080 4500 DU NSC 41/00 Q1007 NOSIG
Conditions at: FTTJ (NDJAMENA (CIV/MI, TD) observed 1200 UTC 18 April 2019
Temperature: 41.0°C (106°F)
Dewpoint: 0.0°C (32°F) [RH =  8%]
Pressure (altimeter): 29.73 inches Hg (1007.0 mb)
Winds: from the N (350 degrees) at 12 MPH (10 knots; 5.1 m/s)
Visibility: 2.80 miles (4.51 km)
Ceiling: at least 12,000 feet AGL
Clouds: sky clear below 12,000 feet AGL
Weather: DU  (widespread dust)

METAR text: FTTJ 181100Z 36012KT 360V080 4500 DU NSC 40/02 Q1008 NOSIG
Conditions at: FTTJ (NDJAMENA (CIV/MI, TD) observed 1100 UTC 18 April 2019
Temperature: 40.0°C (104°F)
Dewpoint: 2.0°C (36°F) [RH = 10%]
Pressure (altimeter): 29.76 inches Hg (1008.0 mb)
Winds: from the N (360 degrees) at 14 MPH (12 knots; 6.2 m/s)
Visibility: 2.80 miles (4.51 km)
Ceiling: at least 12,000 feet AGL
Clouds: sky clear below 12,000 feet AGL
Weather: DU  (widespread dust)

METAR text: FTTJ 181000Z 03012KT 4500 DU NSC 38/01 Q1009 NOSIG
Conditions at: FTTJ (NDJAMENA (CIV/MI, TD) observed 1000 UTC 18 April 2019
Temperature: 38.0°C (100°F)
Dewpoint: 1.0°C (34°F) [RH = 10%]
Pressure (altimeter): 29.79 inches Hg (1009.0 mb)
Winds: from the NNE (30 degrees) at 14 MPH (12 knots; 6.2 m/s)
Visibility: 2.80 miles (4.51 km)
Ceiling: at least 12,000 feet AGL
Clouds: sky clear below 12,000 feet AGL
Weather: DU  (widespread dust)

METAR text: FTTJ 180900Z 02014KT 4500 DU NSC 35/M01 Q1010 NOSIG
Conditions at: FTTJ (NDJAMENA (CIV/MI, TD) observed 0900 UTC 18 April 2019
Temperature: 35.0°C (95°F)
Dewpoint: -1.0°C (30°F) [RH = 10%]
Pressure (altimeter): 29.82 inches Hg (1010.0 mb)
Winds: from the NNE (20 degrees) at 16 MPH (14 knots; 7.2 m/s)
Visibility: 2.80 miles (4.51 km)
Ceiling: at least 12,000 feet AGL
Clouds: sky clear below 12,000 feet AGL
Weather: DU  (widespread dust)

METAR text: FTTJ 180800Z 02015KT 4500 DU NSC 33/M01 Q1010 NOSIG
Conditions at: FTTJ (NDJAMENA (CIV/MI, TD) observed 0800 UTC 18 April 2019
Temperature: 33.0°C (91°F)
Dewpoint: -1.0°C (30°F) [RH = 11%]
Pressure (altimeter): 29.82 inches Hg (1010.0 mb)
Winds: from the NNE (20 degrees) at 17 MPH (15 knots; 7.7 m/s)
Visibility: 2.80 miles (4.51 km)
Ceiling: at least 12,000 feet AGL
Clouds: sky clear below 12,000 feet AGL
Weather: DU  (widespread dust)

METAR text: FTTJ 180700Z 01015KT 4000 DU NSC 31/M02 Q1010 NOSIG
Conditions at: FTTJ (NDJAMENA (CIV/MI, TD) observed 0700 UTC 18 April 2019
Temperature: 31.0°C (88°F)
Dewpoint: -2.0°C (28°F) [RH = 12%]
Pressure (altimeter): 29.82 inches Hg (1010.0 mb)
Winds: from the N (10 degrees) at 17 MPH (15 knots; 7.7 m/s)
Visibility: 2.49 miles (4.01 km)
Ceiling: at least 12,000 feet AGL
Clouds: sky clear below 12,000 feet AGL
Weather: DU  (widespread dust)

METAR text: FTTJ 180600Z 02009KT 4000 DU NSC 28/M02 Q1009 NOSIG
Conditions at: FTTJ (NDJAMENA (CIV/MI, TD) observed 0600 UTC 18 April 2019
Temperature: 28.0°C (82°F)
Dewpoint: -2.0°C (28°F) [RH = 14%]
Pressure (altimeter): 29.79 inches Hg (1009.0 mb)
Winds: from the NNE (20 degrees) at 10 MPH (9 knots; 4.6 m/s)
Visibility: 2.49 miles (4.01 km)
Ceiling: at least 12,000 feet AGL
Clouds: sky clear below 12,000 feet AGL
Weather: DU  (widespread dust)

METAR text: FTTJ 180500Z 02009KT 2500 DU NSC 27/M02 Q1008 NOSIG
Conditions at: FTTJ (NDJAMENA (CIV/MI, TD) observed 0500 UTC 18 April 2019
Temperature: 27.0°C (81°F)
Dewpoint: -2.0°C (28°F) [RH = 15%]
Pressure (altimeter): 29.76 inches Hg (1008.0 mb)
Winds: from the NNE (20 degrees) at 10 MPH (9 knots; 4.6 m/s)
Visibility: 1.55 miles (2.49 km)
Ceiling: at least 12,000 feet AGL
Clouds: sky clear below 12,000 feet AGL
Weather: DU  (widespread dust)

METAR text: FTTJ 180400Z 01010KT 3500 DU NSC 28/M01 Q1008 NOSIG
Conditions at: FTTJ (NDJAMENA (CIV/MI, TD) observed 0400 UTC 18 April 2019
Temperature: 28.0°C (82°F)
Dewpoint: -1.0°C (30°F) [RH = 15%]
Pressure (altimeter): 29.76 inches Hg (1008.0 mb)
Winds: from the N (10 degrees) at 12 MPH (10 knots; 5.1 m/s)
Visibility: 2.17 miles (3.49 km)
Ceiling: at least 12,000 feet AGL
Clouds: sky clear below 12,000 feet AGL
Weather: DU  (widespread dust)

METAR text: FTTJ 180300Z 36009KT 3000 DU NSC 29/M01 Q1007 NOSIG
Conditions at: FTTJ (NDJAMENA (CIV/MI, TD) observed 0300 UTC 18 April 2019
Temperature: 29.0°C (84°F)
Dewpoint: -1.0°C (30°F) [RH = 14%]
Pressure (altimeter): 29.73 inches Hg (1007.0 mb)
Winds: from the N (360 degrees) at 10 MPH (9 knots; 4.6 m/s)
Visibility: 1.86 miles (2.99 km)
Ceiling: at least 12,000 feet AGL
Clouds: sky clear below 12,000 feet AGL
Weather: DU  (widespread dust)

METAR text: FTTJ 180200Z 35009KT 3000 DU NSC 30/M01 Q1007 NOSIG
Conditions at: FTTJ (NDJAMENA (CIV/MI, TD) observed 0200 UTC 18 April 2019
Temperature: 30.0°C (86°F)
Dewpoint: -1.0°C (30°F) [RH = 13%]
Pressure (altimeter): 29.73 inches Hg (1007.0 mb)
Winds: from the N (350 degrees) at 10 MPH (9 knots; 4.6 m/s)
Visibility: 1.86 miles (2.99 km)
Ceiling: at least 12,000 feet AGL
Clouds: sky clear below 12,000 feet AGL
Weather: DU  (widespread dust)

METAR text: FTTJ 180100Z 34006KT 5000 DU NSC 28/01 Q1008 NOSIG
Conditions at: FTTJ (NDJAMENA (CIV/MI, TD) observed 0100 UTC 18 April 2019
Temperature: 28.0°C (82°F)
Dewpoint: 1.0°C (34°F) [RH = 17%]
Pressure (altimeter): 29.76 inches Hg (1008.0 mb)
Winds: from the NNW (340 degrees) at 7 MPH (6 knots; 3.1 m/s)
Visibility: 3 miles ( 5 km)
Ceiling: at least 12,000 feet AGL
Clouds: sky clear below 12,000 feet AGL
Weather: DU  (widespread dust)

METAR text: FTTJ 180000Z 31007KT 6000 NSC 29/02 Q1008 NOSIG
Conditions at: FTTJ (NDJAMENA (CIV/MI, TD) observed 0000 UTC 18 April 2019
Temperature: 29.0°C (84°F)
Dewpoint: 2.0°C (36°F) [RH = 18%]
Pressure (altimeter): 29.76 inches Hg (1008.0 mb)
Winds: from the NW (310 degrees) at 8 MPH (7 knots; 3.6 m/s)
Visibility: 4 miles ( 6 km)
Ceiling: at least 12,000 feet AGL
Clouds: sky clear below 12,000 feet AGL
Weather: no significant weather observed at this time

METAR text: FTTJ 172300Z 36006KT 6000 NSC 27/02 Q1009 NOSIG
Conditions at: FTTJ (NDJAMENA (CIV/MI, TD) observed 2300 UTC 17 April 2019
Temperature: 27.0°C (81°F)
Dewpoint: 2.0°C (36°F) [RH = 20%]
Pressure (altimeter): 29.79 inches Hg (1009.0 mb)
Winds: from the N (360 degrees) at 7 MPH (6 knots; 3.1 m/s)
Visibility: 4 miles ( 6 km)
Ceiling: at least 12,000 feet AGL
Clouds: sky clear below 12,000 feet AGL
Weather: no significant weather observed at this time

METAR text: FTTJ 172100Z 35005KT 5000 DU NSC 30/M01 Q1009 NOSIG
Conditions at: FTTJ (NDJAMENA (CIV/MI, TD) observed 2100 UTC 17 April 2019
Temperature: 30.0°C (86°F)
Dewpoint: -1.0°C (30°F) [RH = 13%]
Pressure (altimeter): 29.79 inches Hg (1009.0 mb)
Winds: from the N (350 degrees) at 6 MPH (5 knots; 2.6 m/s)
Visibility: 3 miles ( 5 km)
Ceiling: at least 12,000 feet AGL
Clouds: sky clear below 12,000 feet AGL
Weather: DU  (widespread dust)

Forecast for: FTTJ (NDJAMENA (CIV/MI, TD)
Text: TAF FTTJ 190515Z 1906/2012 01010KT 7000 NSC
Forecast period: 0600 to 1200 UTC 19 April 2019
Forecast type: FROM: standard forecast or significant change
Winds: from the N (10 degrees) at 12 MPH (10 knots; 5.1 m/s)
Visibility: 4 miles (7 km)
Ceiling: unknown
Clouds: missing
Weather: no significant weather forecast for this period
Text: TEMPO 1906/1908 4000 DU
Forecast period: 0600 to 0800 UTC 19 April 2019
Forecast type: TEMPORARY: The following changes expected for less than half the time period
Visibility: 2.49 miles (4.01 km)
Ceiling: unknown
Clouds: missing
Weather: DU  (widespread dust)
Text: BECMG 1912/1914 16010KT
Forecast period: 1200 UTC 19 April 2019 to 1200 UTC 20 April 2019
Forecast type: BECOMING: Conditions expected to become as follows by 1400 UTC 19 April 2019
Winds: from the SSE (160 degrees) at 12 MPH (10 knots; 5.1 m/s)
Visibility: 4 miles (7 km)
Ceiling: unknown
Clouds: missing
Weather: no significant weather forecast for this period